createdAt,value
2018-02-18T00:01:29.289Z,20.77
2018-02-18T00:03:58.262Z,22.15
2018-02-18T00:06:27.076Z,56.30
2018-02-18T00:08:56.074Z,47.88
2018-02-18T00:11:24.853Z,31.77
2018-02-18T00:13:53.728Z,25.42
2018-02-18T00:16:23.704Z,56.88
2018-02-18T00:18:52.578Z,46.05
2018-02-18T00:21:21.456Z,30.92
2018-02-18T00:23:50.289Z,23.92
2018-02-18T00:26:20.289Z,18.60
2018-02-18T00:28:49.169Z,18.87
2018-02-18T00:31:18.689Z,17.00
2018-02-18T00:33:47.787Z,18.05
2018-02-18T00:36:17.417Z,19.00
2018-02-18T00:38:46.174Z,17.73
2018-02-18T00:41:15.888Z,16.05
2018-02-18T00:43:44.836Z,15.40
2018-02-18T00:46:13.677Z,14.60
2018-02-18T00:48:42.622Z,14.70
2018-02-18T00:51:11.641Z,14.77
2018-02-18T00:53:41.375Z,14.75
2018-02-18T00:56:10.976Z,14.23
2018-02-18T00:58:40.761Z,14.65
2018-02-18T01:01:09.627Z,14.63
2018-02-18T01:03:38.377Z,14.27
2018-02-18T01:06:07.233Z,13.60
2018-02-18T01:08:36.000Z,13.98
2018-02-18T01:11:05.098Z,15.10
2018-02-18T01:13:33.876Z,14.82
2018-02-18T01:16:02.874Z,15.00
2018-02-18T01:18:31.677Z,14.73
2018-02-18T01:21:00.650Z,15.35
2018-02-18T01:23:29.643Z,15.07
2018-02-18T01:25:58.448Z,15.80
2018-02-18T01:28:27.568Z,15.88
2018-02-18T01:30:56.274Z,17.33
2018-02-18T01:33:25.074Z,17.35
2018-02-18T01:35:53.861Z,17.15
2018-02-18T01:38:22.951Z,17.27
2018-02-18T01:40:52.508Z,15.48
2018-02-18T01:43:22.309Z,14.32
2018-02-18T01:45:51.171Z,15.38
2018-02-18T01:48:20.089Z,15.75
2018-02-18T01:50:48.751Z,16.08
2018-02-18T01:53:18.309Z,17.37
2018-02-18T01:55:47.133Z,15.45
2018-02-18T01:58:16.697Z,16.17
2018-02-18T02:00:46.221Z,15.00
2018-02-18T02:03:15.157Z,15.10
2018-02-18T02:05:43.906Z,15.77
2018-02-18T02:08:12.880Z,14.65
2018-02-18T02:10:42.585Z,14.90
2018-02-18T02:13:11.943Z,14.70
2018-02-18T02:15:41.003Z,15.38
2018-02-18T02:18:09.770Z,15.73
2018-02-18T02:20:38.751Z,13.18
2018-02-18T02:23:07.499Z,12.80
2018-02-18T02:25:36.269Z,14.02
2018-02-18T02:28:05.925Z,13.85
2018-02-18T02:30:34.709Z,14.23
2018-02-18T02:33:03.509Z,15.63
2018-02-18T02:35:32.326Z,16.45
2018-02-18T02:38:02.139Z,16.95
2018-02-18T02:40:31.061Z,17.05
2018-02-18T02:42:59.910Z,15.82
2018-02-18T02:45:29.177Z,15.32
2018-02-18T02:47:58.098Z,16.73
2018-02-18T02:50:26.930Z,15.65
2018-02-18T02:52:55.630Z,16.75
2018-02-18T02:55:24.458Z,16.08
2018-02-18T02:57:53.126Z,16.05
2018-02-18T03:00:21.865Z,16.17
2018-02-18T03:02:50.807Z,16.35
2018-02-18T03:05:20.451Z,18.67
2018-02-18T03:07:50.010Z,15.93
2018-02-18T03:10:18.893Z,15.57
2018-02-18T03:12:47.665Z,16.37
2018-02-18T03:15:16.422Z,16.62
2018-02-18T03:17:46.171Z,16.80
2018-02-18T03:20:16.094Z,20.88
2018-02-18T03:22:44.986Z,27.25
2018-02-18T03:25:13.714Z,25.60
2018-02-18T03:27:42.749Z,24.20
2018-02-18T03:30:11.460Z,25.05
2018-02-18T03:32:40.400Z,26.52
2018-02-18T03:35:09.169Z,27.52
2018-02-18T03:37:37.931Z,26.48
2018-02-18T03:40:07.130Z,24.00
2018-02-18T03:42:36.080Z,25.55
2018-02-18T03:45:05.941Z,25.23
2018-02-18T03:47:35.526Z,24.33
2018-02-18T03:50:04.321Z,25.12
2018-02-18T03:52:33.106Z,26.60
2018-02-18T03:55:02.107Z,25.35
2018-02-18T03:57:30.829Z,22.35
2018-02-18T03:59:59.621Z,21.15
2018-02-18T04:02:28.559Z,19.00
2018-02-18T04:04:57.690Z,19.73
2018-02-18T04:07:26.386Z,18.87
2018-02-18T04:09:55.461Z,18.65
2018-02-18T04:12:24.339Z,18.30
2018-02-18T04:14:53.102Z,18.17
2018-02-18T04:17:21.950Z,18.92
2018-02-18T04:19:50.639Z,21.17
2018-02-18T04:22:19.524Z,19.55
2018-02-18T04:24:49.133Z,18.05
2018-02-18T04:27:18.098Z,18.50
2018-02-18T04:29:46.809Z,17.75
2018-02-18T04:32:16.592Z,17.60
2018-02-18T04:34:45.353Z,17.27
2018-02-18T04:37:14.237Z,17.77
2018-02-18T04:39:42.955Z,17.02
2018-02-18T04:42:12.060Z,16.30
2018-02-18T04:44:41.148Z,16.60
2018-02-18T04:47:10.890Z,16.85
2018-02-18T04:49:40.562Z,20.40
2018-02-18T04:52:09.389Z,18.87
2018-02-18T04:54:38.145Z,18.58
2018-02-18T04:57:06.919Z,20.98
2018-02-18T04:59:36.230Z,21.80
2018-02-18T05:02:05.036Z,23.45
2018-02-18T05:04:33.821Z,24.27
2018-02-18T05:07:02.893Z,24.30
2018-02-18T05:09:32.233Z,28.83
2018-02-18T05:12:01.373Z,26.10
2018-02-18T05:14:30.438Z,24.70
2018-02-18T05:16:59.554Z,24.80
2018-02-18T05:19:28.318Z,24.92
2018-02-18T05:21:56.995Z,24.48
2018-02-18T05:24:26.587Z,25.40
2018-02-18T05:26:55.435Z,27.37
2018-02-18T05:29:25.371Z,27.92
2018-02-18T05:31:54.179Z,26.40
2018-02-18T05:34:23.226Z,23.85
2018-02-18T05:36:52.814Z,23.83
2018-02-18T05:39:21.616Z,23.17
2018-02-18T05:41:51.218Z,24.95
2018-02-18T09:37:23.789Z,17.13
2018-02-18T09:39:52.983Z,12.67
2018-02-18T09:42:22.329Z,14.17
2018-02-18T09:44:52.511Z,16.10
2018-02-18T09:47:22.488Z,22.80
2018-02-18T09:49:52.299Z,22.30
2018-02-18T09:52:21.416Z,21.43
2018-02-18T09:54:50.768Z,22.57
2018-02-18T09:57:20.082Z,21.27
2018-02-18T09:59:50.099Z,24.60
2018-02-18T10:02:19.931Z,27.20
2018-02-18T10:04:49.875Z,23.70
2018-02-18T10:07:19.196Z,24.47
2018-02-18T10:09:48.886Z,24.37
2018-02-18T10:12:18.183Z,22.83
2018-02-18T10:14:48.088Z,22.13
2018-02-18T10:17:17.924Z,23.77
2018-02-18T10:19:47.039Z,21.03
2018-02-18T10:22:16.221Z,23.90
2018-02-18T10:24:45.113Z,23.87
2018-02-18T10:27:14.070Z,25.50
2018-02-18T10:29:43.014Z,23.30
2018-02-18T10:32:12.761Z,19.73
2018-02-18T10:34:42.500Z,20.47
2018-02-18T10:37:11.720Z,18.50
2018-02-18T10:39:40.830Z,19.93
2018-02-18T10:42:10.003Z,21.03
2018-02-18T10:44:39.060Z,20.90
2018-02-18T10:47:08.046Z,20.07
2018-02-18T10:49:37.780Z,18.67
2018-02-18T10:52:06.758Z,18.53
2018-02-18T10:54:36.599Z,18.17
2018-02-18T10:57:05.500Z,16.87
2018-02-18T10:59:34.445Z,19.83
2018-02-18T11:02:03.414Z,19.27
2018-02-18T11:04:33.149Z,16.33
2018-02-18T11:07:02.110Z,16.43
2018-02-18T11:09:31.092Z,16.90
2018-02-18T11:12:00.221Z,19.53
2018-02-18T11:14:31.371Z,18.83
2018-02-18T11:17:01.145Z,21.93
2018-02-18T11:19:30.897Z,20.93
2018-02-18T11:22:00.627Z,21.73
2018-02-18T11:24:29.547Z,18.17
2018-02-18T11:26:58.472Z,21.73
2018-02-18T11:29:28.330Z,18.83
2018-02-18T11:31:57.364Z,18.97
2018-02-18T11:34:26.236Z,18.43
2018-02-18T11:36:55.198Z,18.93
2018-02-18T11:39:24.104Z,20.47
2018-02-18T11:41:53.920Z,19.73
2018-02-18T11:44:22.898Z,20.67
2018-02-18T11:46:51.864Z,20.30
2018-02-18T11:49:20.981Z,19.80
2018-02-18T11:51:49.872Z,20.60
2018-02-18T11:54:18.853Z,19.73
2018-02-18T11:56:47.834Z,17.73
2018-02-18T11:59:17.556Z,18.90
2018-02-18T12:01:47.251Z,19.67
2018-02-18T12:04:17.010Z,19.40
2018-02-18T12:06:45.955Z,17.30
2018-02-18T12:09:15.832Z,18.93
2018-02-18T12:11:44.810Z,18.30
2018-02-18T12:14:13.768Z,18.87
2018-02-18T12:16:43.522Z,18.20
2018-02-18T12:19:12.464Z,19.30
2018-02-18T12:21:41.391Z,18.53
2018-02-18T12:24:10.347Z,19.00
2018-02-18T12:26:40.183Z,17.40
2018-02-18T12:29:09.214Z,18.47
2018-02-18T12:31:38.179Z,17.97
2018-02-18T12:34:07.930Z,19.87
2018-02-18T12:36:36.903Z,18.03
2018-02-18T12:39:05.893Z,16.77
2018-02-18T12:41:34.800Z,18.23
2018-02-18T12:44:04.518Z,18.93
2018-02-18T12:46:34.302Z,17.97
2018-02-18T12:49:03.268Z,20.47
2018-02-18T12:51:32.220Z,20.37
2018-02-18T12:54:01.238Z,19.40
2018-02-18T12:56:30.114Z,19.33
2018-02-18T12:58:59.181Z,19.40
2018-02-18T13:01:28.216Z,18.07
2018-02-18T13:03:58.089Z,17.73
2018-02-18T13:06:27.044Z,19.00
2018-02-18T13:08:56.035Z,18.47
2018-02-18T13:11:24.946Z,17.87
2018-02-18T13:13:53.910Z,17.07
2018-02-18T13:16:23.624Z,17.87
2018-02-18T13:18:52.554Z,17.67
2018-02-18T13:21:21.527Z,17.77
2018-02-18T13:23:50.497Z,18.07
2018-02-18T13:26:19.489Z,17.53
2018-02-18T13:28:48.447Z,16.53
2018-02-18T13:31:18.259Z,19.73
2018-02-18T13:33:47.267Z,16.13
2018-02-18T13:36:16.952Z,20.97
2018-02-18T13:38:46.669Z,21.63
2018-02-18T13:41:16.580Z,20.00
2018-02-18T13:43:46.528Z,17.00
2018-02-18T13:46:15.493Z,17.67
2018-02-18T13:48:45.219Z,17.50
2018-02-18T13:51:15.033Z,18.03
2018-02-18T13:53:44.758Z,17.83
2018-02-18T13:56:13.735Z,17.07
2018-02-18T13:58:43.416Z,16.93
2018-02-18T14:01:12.382Z,17.87
2018-02-18T14:03:41.305Z,18.00
2018-02-18T14:06:11.042Z,18.47
2018-02-18T14:08:40.735Z,17.77
2018-02-18T14:11:10.454Z,15.37
2018-02-18T14:13:39.356Z,17.13
2018-02-18T14:16:09.207Z,15.90
2018-02-18T14:18:38.190Z,16.53
2018-02-18T14:21:07.154Z,15.03
2018-02-18T14:23:36.142Z,15.63
2018-02-18T14:26:05.157Z,16.07
2018-02-18T14:28:34.099Z,14.77
2018-02-18T14:31:03.830Z,15.93
2018-02-18T14:33:32.796Z,15.57
2018-02-18T14:36:01.984Z,15.87
2018-02-18T14:38:30.923Z,16.00
2018-02-18T14:41:00.571Z,15.60
2018-02-18T14:43:41.371Z,14.93
2018-02-18T14:46:22.131Z,15.07
2018-02-18T14:49:02.999Z,16.20
2018-02-18T14:51:43.512Z,17.03
2018-02-18T14:54:24.244Z,16.57
2018-02-18T14:57:05.073Z,16.50
2018-02-18T14:59:34.140Z,16.70
2018-02-18T15:02:03.851Z,15.50
2018-02-18T15:04:32.736Z,15.97
2018-02-18T15:07:02.420Z,15.53
2018-02-18T15:09:31.483Z,18.30
2018-02-18T15:12:00.447Z,24.20
2018-02-18T15:14:29.388Z,21.77
2018-02-18T15:16:58.328Z,22.97
2018-02-18T15:19:27.323Z,23.37
2018-02-18T15:21:56.217Z,21.87
2018-02-18T15:24:25.234Z,21.53
2018-02-18T15:26:54.187Z,20.70
2018-02-18T15:29:24.062Z,20.27
2018-02-18T15:31:53.008Z,21.27
2018-02-18T15:34:21.888Z,20.77
2018-02-18T15:36:50.830Z,21.93
2018-02-18T15:39:20.552Z,22.00
2018-02-18T15:41:49.600Z,21.90
2018-02-18T15:44:18.508Z,27.60
2018-02-18T15:46:47.556Z,27.30
2018-02-18T15:49:17.285Z,23.60
2018-02-18T15:51:46.220Z,24.43
2018-02-18T15:54:15.152Z,23.97
2018-02-18T15:56:44.109Z,54.10
2018-02-18T15:59:13.070Z,76.13
2018-02-18T16:01:42.054Z,57.10
2018-02-18T16:04:11.103Z,53.77
2018-02-18T16:06:40.890Z,46.77
2018-02-18T16:09:10.576Z,49.87
2018-02-18T16:11:39.512Z,70.50
2018-02-18T16:14:08.452Z,46.63
2018-02-18T16:16:37.412Z,53.17
2018-02-18T16:19:06.478Z,70.10
2018-02-18T16:21:36.233Z,66.93
2018-02-18T16:24:05.360Z,56.97
2018-02-18T16:26:34.360Z,77.97
2018-02-18T16:29:03.410Z,82.07
2018-02-18T16:31:33.104Z,63.93
2018-02-18T16:34:02.139Z,58.03
2018-02-18T16:36:31.125Z,56.97
2018-02-18T16:39:00.269Z,54.40
2018-02-18T16:41:29.279Z,61.40
2018-02-18T16:43:58.260Z,52.10
2018-02-18T16:46:27.380Z,51.87
2018-02-18T16:48:56.527Z,56.13
2018-02-18T16:51:25.494Z,64.87
2018-02-18T16:53:54.476Z,73.37
2018-02-18T16:56:24.387Z,56.73
2018-02-18T16:58:54.064Z,55.43
2018-02-18T17:01:23.756Z,57.93
2018-02-18T17:03:52.793Z,63.17
2018-02-18T17:06:21.776Z,69.77
2018-02-18T17:08:51.433Z,64.60
2018-02-18T17:11:20.415Z,68.70
2018-02-18T17:13:49.380Z,70.50
2018-02-18T17:16:20.016Z,67.67
2018-02-18T17:18:49.956Z,54.30
2018-02-18T17:21:19.060Z,55.43
2018-02-18T17:23:48.860Z,59.03
2018-02-18T17:26:17.800Z,69.80
2018-02-18T17:28:46.827Z,71.47
2018-02-18T17:31:16.548Z,74.97
2018-02-18T17:33:45.547Z,69.70
2018-02-18T17:36:14.408Z,44.73
2018-02-18T17:38:44.099Z,38.42
2018-02-18T17:41:13.068Z,35.45
2018-02-18T17:43:42.044Z,35.60
2018-02-18T17:46:11.202Z,42.38
2018-02-18T17:48:40.926Z,39.35
2018-02-18T17:51:09.869Z,37.72
2018-02-18T17:53:38.939Z,40.00
2018-02-18T17:56:07.980Z,38.70
2018-02-18T17:58:37.142Z,47.47
2018-02-18T18:01:06.214Z,132.10
2018-02-18T18:03:35.161Z,92.28
2018-02-18T18:06:04.054Z,45.17
2018-02-18T18:08:33.051Z,38.42
2018-02-18T18:11:01.991Z,36.85
2018-02-18T18:13:30.984Z,35.25
2018-02-18T18:16:00.028Z,36.63
2018-02-18T18:18:29.776Z,42.25
2018-02-18T18:20:58.681Z,41.85
2018-02-18T18:23:27.645Z,66.80
2018-02-18T18:25:56.605Z,59.55
2018-02-18T18:28:25.702Z,53.70
2018-02-18T18:30:54.661Z,47.28
2018-02-18T18:33:23.725Z,47.05
2018-02-18T18:35:52.701Z,48.58
2018-02-18T18:38:22.440Z,47.95
2018-02-18T18:40:51.478Z,49.13
2018-02-18T18:43:21.330Z,48.53
2018-02-18T18:45:50.453Z,46.88
2018-02-18T18:48:19.615Z,46.30
2018-02-18T18:50:48.871Z,48.63
2018-02-18T18:53:18.129Z,50.83
2018-02-18T18:55:47.314Z,54.60
2018-02-18T18:58:16.443Z,51.40
2018-02-18T19:00:46.251Z,57.92
2018-02-18T19:03:15.460Z,52.72
2018-02-18T19:05:44.793Z,50.45
2018-02-18T19:08:14.127Z,51.28
2018-02-18T19:10:44.343Z,46.30
2018-02-18T19:13:14.397Z,44.95
2018-02-18T19:15:44.536Z,44.67
2018-02-18T19:18:14.598Z,44.70
2018-02-18T19:20:43.720Z,47.28
2018-02-18T19:23:12.827Z,43.45
2018-02-18T19:25:41.934Z,41.85
2018-02-18T19:28:11.123Z,39.50
2018-02-18T19:30:41.203Z,37.30
2018-02-18T19:33:10.422Z,37.50
2018-02-18T19:35:39.903Z,39.28
2018-02-18T19:38:09.229Z,41.30
2018-02-18T19:40:38.462Z,39.97
2018-02-18T19:43:07.787Z,49.28
2018-02-18T19:45:37.806Z,53.33
2018-02-18T19:48:07.034Z,56.45
2018-02-18T19:50:36.409Z,68.82
2018-02-18T19:53:05.698Z,73.32
2018-02-18T19:55:35.047Z,66.82
2018-02-18T19:58:04.368Z,58.42
2018-02-18T20:00:34.624Z,62.30
2018-02-18T20:03:04.591Z,58.80
2018-02-18T20:05:33.893Z,62.58
2018-02-18T20:08:03.202Z,63.72
2018-02-18T20:10:32.580Z,62.25
2018-02-18T20:13:01.955Z,58.92
2018-02-18T20:15:31.232Z,60.47
2018-02-18T20:18:00.492Z,54.53
2018-02-18T20:20:30.612Z,60.97
2018-02-18T20:22:59.845Z,56.55
2018-02-18T20:25:29.696Z,56.45
2018-02-18T20:27:59.472Z,54.95
2018-02-18T20:30:28.611Z,56.65
2018-02-18T20:32:57.639Z,53.15
2018-02-18T20:35:27.084Z,51.20
2018-02-18T20:37:56.298Z,49.17
2018-02-18T20:40:25.343Z,49.30
2018-02-18T20:42:54.342Z,49.58
2018-02-18T20:45:25.001Z,50.25
2018-02-18T20:47:55.967Z,46.03
2018-02-18T20:50:24.929Z,45.30
2018-02-18T20:52:53.958Z,45.40
2018-02-18T20:55:22.929Z,58.15
2018-02-18T20:57:52.104Z,62.25
2018-02-18T21:00:21.902Z,53.70
2018-02-18T21:02:51.678Z,52.95
2018-02-18T21:05:20.696Z,59.47
2018-02-18T21:07:49.748Z,57.33
2018-02-18T21:10:18.728Z,60.15
2018-02-18T21:12:48.459Z,55.92
2018-02-18T21:15:17.730Z,52.58
2018-02-18T21:17:46.880Z,54.83
2018-02-18T21:20:16.086Z,50.95
2018-02-18T21:22:45.043Z,49.88
2018-02-18T21:25:14.694Z,52.83
2018-02-18T21:27:43.697Z,49.67
2018-02-18T21:30:12.888Z,50.15
2018-02-18T21:32:41.837Z,49.13
2018-02-18T21:35:10.950Z,50.05
2018-02-18T21:37:39.819Z,49.47
2018-02-18T21:40:09.577Z,59.63
2018-02-18T21:42:38.898Z,53.47
2018-02-18T21:45:08.693Z,50.05
2018-02-18T21:47:38.508Z,52.20
2018-02-18T21:50:07.423Z,50.03
2018-02-18T21:52:37.324Z,54.70
2018-02-18T21:55:07.190Z,52.22
2018-02-18T21:57:36.116Z,55.80
2018-02-18T22:00:05.109Z,52.30
2018-02-18T22:02:34.492Z,49.83
2018-02-18T22:05:03.428Z,51.42
2018-02-18T22:07:32.475Z,67.50
2018-02-18T22:10:01.506Z,89.62
2018-02-18T22:12:30.627Z,94.65
2018-02-18T22:15:00.477Z,86.78
2018-02-18T22:17:30.372Z,85.60
2018-02-18T22:19:59.499Z,84.87
2018-02-18T22:22:28.609Z,70.82
2018-02-18T22:24:57.821Z,68.78
2018-02-18T22:27:27.511Z,68.12
2018-02-18T22:29:57.390Z,66.00
2018-02-18T22:32:27.236Z,63.20
2018-02-18T22:34:56.182Z,69.70
2018-02-18T22:37:25.883Z,72.40
2018-02-18T22:39:55.593Z,73.25
2018-02-18T22:42:24.549Z,72.90
2018-02-18T22:44:53.727Z,67.25
2018-02-18T22:47:23.229Z,55.80
2018-02-18T22:49:52.397Z,51.55
2018-02-18T22:52:22.101Z,54.85
2018-02-18T22:54:52.056Z,52.85
2018-02-18T22:57:21.061Z,53.58
2018-02-18T22:59:50.046Z,58.90
2018-02-18T23:02:19.820Z,56.40
2018-02-18T23:04:48.864Z,53.55
2018-02-18T23:07:18.034Z,51.50
2018-02-18T23:09:47.034Z,48.35
2018-02-18T23:12:16.324Z,49.42
2018-02-18T23:14:45.354Z,53.55
2018-02-18T23:17:14.181Z,50.60
2018-02-18T23:19:44.020Z,52.08
2018-02-18T23:22:12.888Z,47.45
2018-02-18T23:24:42.722Z,47.25
2018-02-18T23:27:11.792Z,45.50
2018-02-18T23:29:40.809Z,48.15
2018-02-18T23:32:09.885Z,47.90
2018-02-18T23:34:38.800Z,50.08
2018-02-18T23:37:07.701Z,50.12
2018-02-18T23:39:36.782Z,50.92
2018-02-18T23:42:05.764Z,53.35
2018-02-18T23:44:34.774Z,54.90
2018-02-18T23:47:03.862Z,59.70
2018-02-18T23:49:32.964Z,58.67
2018-02-18T23:52:01.924Z,61.40
2018-02-18T23:54:31.642Z,63.17
2018-02-18T23:57:00.795Z,60.05
2018-02-18T23:59:29.908Z,60.85
